Time;durP1;ratioP1;P1;durP2;ratioP2;P2;SDS_P1;SDS_P2;PMS_P1;PMS_P2;Temp;Humidity;BMP_temperature;BMP_pressure;BME280_temperature;BME280_humidity;BME280_pressure;Samples;Min_cycle;Max_cycle;Signal;HPM_P1;HPM_P2
2023/04/30 00:02:48;;;;;;;25.15;17.30;;;;;;;6.81;100.00;102365.75;10315554;28;20050;-73
2023/04/30 00:07:49;;;;;;;25.60;16.83;;;;;;;6.78;100.00;102364.16;10315816;28;20030;-72
2023/04/30 00:12:49;;;;;;;17.88;13.90;;;;;;;6.80;100.00;102355.97;10333060;28;20042;-73
2023/04/30 00:17:50;;;;;;;20.40;15.65;;;;;;;6.78;100.00;102364.16;10315461;28;20034;-73
2023/04/30 00:22:50;;;;;;;19.40;14.43;;;;;;;6.73;100.00;102366.41;10333464;28;20034;-73
2023/04/30 00:27:51;;;;;;;19.63;12.48;;;;;;;6.71;100.00;102363.84;10315335;28;20030;-74
2023/04/30 00:32:51;;;;;;;17.77;11.57;;;;;;;6.84;100.00;102369.00;10312519;28;20038;-73
2023/04/30 00:37:52;;;;;;;19.67;13.25;;;;;;;6.77;100.00;102369.69;10345563;28;20377;-72
2023/04/30 00:42:54;;;;;;;19.35;13.73;;;;;;;6.71;100.00;102376.47;10312563;28;20042;-72
2023/04/30 00:47:55;;;;;;;16.23;12.82;;;;;;;6.58;100.00;102375.84;10312400;28;20433;-73
2023/04/30 00:52:56;;;;;;;21.63;14.73;;;;;;;6.54;100.00;102380.66;10328761;28;20042;-72
2023/04/30 00:57:57;;;;;;;28.25;14.35;;;;;;;6.52;100.00;102369.16;10311300;28;20497;-72
2023/04/30 01:02:57;;;;;;;28.40;17.05;;;;;;;6.62;100.00;102375.44;10328857;28;20070;-72
2023/04/30 01:07:58;;;;;;;21.80;16.60;;;;;;;6.67;100.00;102377.75;10344867;28;20068;-72
2023/04/30 01:13:03;;;;;;;27.38;16.13;;;;;;;6.64;100.00;102376.16;10311284;28;20394;-72
2023/04/30 01:18:18;;;;;;;21.88;16.73;;;;;;;6.60;100.00;102384.63;10297061;28;20042;-73
2023/04/30 01:23:33;;;;;;;24.83;17.10;;;;;;;6.49;100.00;102390.97;10313523;28;20030;-72
2023/04/30 01:28:34;;;;;;;25.50;16.70;;;;;;;6.41;100.00;102397.00;10345024;28;20069;-72
2023/04/30 01:33:35;;;;;;;25.00;16.15;;;;;;;6.39;100.00;102400.84;10327484;28;20077;-72
2023/04/30 01:39:13;;;;;;;23.42;15.35;;;;;;;6.35;100.00;102394.00;10328857;28;20116;-73
2023/04/30 01:44:35;;;;;;;22.65;15.65;;;;;;;6.31;100.00;102389.88;10338330;28;20041;-73
2023/04/30 01:49:56;;;;;;;25.77;17.67;;;;;;;6.35;100.00;102388.59;10306055;28;20428;-72
2023/04/30 01:54:59;;;;;;;28.60;17.10;;;;;;;6.41;100.00;102371.94;10338734;28;20049;-72
2023/04/30 01:59:59;;;;;;;35.22;18.70;;;;;;;6.47;100.00;102382.16;10304522;28;20371;-72
2023/04/30 02:05:00;;;;;;;17.23;14.40;;;;;;;6.50;100.00;102376.50;10320830;28;20037;-72
2023/04/30 02:10:00;;;;;;;21.80;18.35;;;;;;;6.53;100.00;102374.41;10338172;28;20073;-72
2023/04/30 02:15:02;;;;;;;32.03;17.85;;;;;;;6.55;100.00;102381.50;10320973;28;20038;-72
2023/04/30 02:20:02;;;;;;;26.15;16.83;;;;;;;6.54;100.00;102375.28;10319121;28;20104;-72
2023/04/30 02:25:03;;;;;;;26.52;17.40;;;;;;;6.52;100.00;102377.25;10319468;28;20544;-72
2023/04/30 02:30:04;;;;;;;26.70;18.20;;;;;;;6.49;100.00;102372.13;10319369;28;20049;-72
2023/04/30 02:35:04;;;;;;;30.30;20.75;;;;;;;6.46;100.00;102380.47;10337144;28;20140;-73
2023/04/30 02:40:08;;;;;;;25.00;18.10;;;;;;;6.41;100.00;102372.78;10319071;28;20053;-72
2023/04/30 02:45:08;;;;;;;27.35;18.27;;;;;;;6.49;100.00;102370.28;10336229;28;20383;-72
2023/04/30 02:50:09;;;;;;;22.48;16.55;;;;;;;6.53;100.00;102370.84;10336086;28;20054;-72
2023/04/30 02:55:10;;;;;;;21.85;15.48;;;;;;;6.49;100.00;102369.44;10335567;28;20487;-72
2023/04/30 03:00:11;;;;;;;26.70;17.08;;;;;;;6.47;100.00;102368.72;10317423;28;20137;-72
2023/04/30 03:05:12;;;;;;;34.25;19.48;;;;;;;6.44;100.00;102379.75;10335835;28;20046;-72
2023/04/30 03:10:12;;;;;;;22.02;16.10;;;;;;;6.32;100.00;102388.88;10319587;28;20065;-73
2023/04/30 03:15:13;;;;;;;25.27;18.30;;;;;;;6.26;100.00;102380.38;10316963;28;20034;-72
2023/04/30 03:20:13;;;;;;;26.05;17.63;;;;;;;6.22;100.00;102383.44;10301728;28;20125;-72
2023/04/30 03:25:14;;;;;;;26.65;18.50;;;;;;;6.24;100.00;102385.00;10335226;28;20473;-72
2023/04/30 03:30:14;;;;;;;27.65;19.42;;;;;;;6.26;100.00;102387.59;10334344;28;20440;-72
2023/04/30 03:35:15;;;;;;;28.27;20.45;;;;;;;6.24;100.00;102382.31;10335070;28;20035;-72
2023/04/30 03:40:15;;;;;;;21.42;18.13;;;;;;;6.22;100.00;102378.06;10317112;28;20409;-72
2023/04/30 03:45:16;;;;;;;22.10;17.63;;;;;;;6.12;100.00;102377.16;10333307;28;20486;-72
2023/04/30 03:50:16;;;;;;;27.27;18.48;;;;;;;6.08;100.00;102371.19;10333422;28;20114;-72
2023/04/30 03:55:17;;;;;;;23.15;16.88;;;;;;;6.08;100.00;102363.13;10333993;28;20038;-72
2023/04/30 04:00:17;;;;;;;25.15;19.85;;;;;;;6.09;100.00;102355.91;10333683;28;20421;-73
2023/04/30 04:05:18;;;;;;;26.02;19.98;;;;;;;6.08;100.00;102355.06;10316063;28;20083;-73
2023/04/30 04:10:18;;;;;;;25.23;20.08;;;;;;;6.10;100.00;102355.78;10284027;28;20137;-73
2023/04/30 04:15:19;;;;;;;24.33;19.23;;;;;;;6.08;100.00;102360.44;10299883;28;20039;-72
2023/04/30 04:20:19;;;;;;;36.42;22.35;;;;;;;6.01;100.00;102360.13;10315341;28;20117;-72
2023/04/30 04:25:23;;;;;;;26.83;20.95;;;;;;;6.03;100.00;102362.66;10317046;28;20072;-72
2023/04/30 04:30:24;;;;;;;34.78;20.95;;;;;;;6.09;100.00;102363.97;10315901;28;20038;-72
2023/04/30 04:35:24;;;;;;;31.45;22.02;;;;;;;6.11;100.00;102365.53;10333778;28;20041;-73
2023/04/30 04:40:25;;;;;;;30.42;21.10;;;;;;;6.11;100.00;102375.47;10332605;28;20030;-72
2023/04/30 04:45:25;;;;;;;31.55;20.60;;;;;;;6.17;100.00;102378.47;10332297;28;20084;-72
2023/04/30 04:50:26;;;;;;;34.47;22.08;;;;;;;6.19;100.00;102384.59;10298815;28;20039;-72
2023/04/30 04:55:26;;;;;;;25.98;20.85;;;;;;;6.32;100.00;102383.50;10332201;28;20078;-72
2023/04/30 05:00:27;;;;;;;22.15;18.08;;;;;;;6.41;100.00;102380.00;10313936;28;20062;-72
2023/04/30 05:05:27;;;;;;;26.92;19.08;;;;;;;6.48;100.00;102390.13;10332297;28;20050;-72
2023/04/30 05:10:28;;;;;;;24.63;18.27;;;;;;;6.55;100.00;102387.75;10314577;28;20026;-73
2023/04/30 05:15:28;;;;;;;23.98;16.95;;;;;;;6.68;100.00;102388.34;10332456;28;20124;-72
2023/04/30 05:20:29;;;;;;;23.65;16.92;;;;;;;6.83;100.00;102393.34;10339966;28;20031;-73
2023/04/30 05:25:29;;;;;;;20.92;16.42;;;;;;;6.91;100.00;102394.38;10339202;28;20475;-73
2023/04/30 05:30:30;;;;;;;18.60;15.45;;;;;;;8.13;100.00;102379.56;10321539;28;20038;-73
2023/04/30 05:35:30;;;;;;;24.27;15.55;;;;;;;9.22;100.00;102378.97;10321378;28;20100;-72
2023/04/30 05:40:31;;;;;;;16.23;14.18;;;;;;;9.95;100.00;102374.25;10338536;28;20485;-73
2023/04/30 05:45:32;;;;;;;15.45;13.55;;;;;;;10.54;100.00;102385.34;10321530;28;20037;-72
2023/04/30 05:50:32;;;;;;;16.85;12.25;;;;;;;10.82;100.00;102386.00;10304868;28;20448;-73
2023/04/30 05:55:33;;;;;;;12.52;9.50;;;;;;;11.26;100.00;102393.06;10320691;28;20073;-73
2023/04/30 06:00:35;;;;;;;11.63;10.02;;;;;;;11.59;100.00;102391.31;10337886;28;20459;-73
2023/04/30 06:05:35;;;;;;;8.98;7.38;;;;;;;12.15;100.00;102386.06;10320252;28;20046;-73
2023/04/30 06:10:36;;;;;;;9.93;7.32;;;;;;;11.82;100.00;102386.91;10338553;28;20046;-73
2023/04/30 06:15:37;;;;;;;7.65;6.38;;;;;;;12.15;100.00;102372.47;10320116;28;20030;-73
2023/04/30 06:20:37;;;;;;;8.98;7.80;;;;;;;12.95;100.00;102377.84;10319773;28;20030;-74
2023/04/30 06:25:38;;;;;;;7.72;6.95;;;;;;;13.05;100.00;102386.66;10336431;28;20125;-73
2023/04/30 06:30:38;;;;;;;8.90;7.25;;;;;;;13.51;100.00;102384.03;10336177;28;20441;-73
2023/04/30 06:35:39;;;;;;;5.70;5.25;;;;;;;13.07;100.00;102376.44;10303009;28;20125;-73
2023/04/30 06:40:39;;;;;;;6.30;5.78;;;;;;;13.28;99.25;102377.72;10336723;28;20038;-73
2023/04/30 06:45:40;;;;;;;6.57;5.22;;;;;;;13.66;96.03;102378.66;10336137;28;20085;-74
2023/04/30 06:50:43;;;;;;;9.80;7.43;;;;;;;13.89;93.74;102382.19;10335270;28;20034;-72
2023/04/30 06:55:45;;;;;;;4.85;4.32;;;;;;;14.28;90.39;102391.22;10335019;28;20037;-73
2023/04/30 07:00:46;;;;;;;10.00;6.03;;;;;;;15.07;89.74;102375.16;10269001;28;20149;-73
2023/04/30 07:05:46;;;;;;;8.95;6.65;;;;;;;15.57;87.44;102382.44;10359628;28;20045;-72
2023/04/30 07:10:47;;;;;;;8.32;4.82;;;;;;;15.58;79.49;102395.03;10359228;28;20030;-73
2023/04/30 07:15:47;;;;;;;7.78;5.22;;;;;;;15.79;76.69;102396.09;10375279;28;20042;-73
2023/04/30 07:20:47;;;;;;;8.30;6.05;;;;;;;16.42;75.14;102391.56;10375788;28;20436;-73
2023/04/30 07:25:48;;;;;;;9.90;4.57;;;;;;;16.19;72.78;102396.47;10358492;28;20037;-73
2023/04/30 07:30:48;;;;;;;13.07;4.75;;;;;;;16.52;72.57;102397.53;10374724;28;20026;-73
2023/04/30 07:35:50;;;;;;;13.52;7.03;;;;;;;16.70;69.53;102383.34;10373767;28;20464;-73
2023/04/30 07:40:50;;;;;;;9.52;5.93;;;;;;;16.67;74.15;102385.63;10373288;28;20040;-73
2023/04/30 07:45:52;;;;;;;7.38;5.72;;;;;;;17.29;71.74;102390.13;10374273;28;20367;-73
2023/04/30 07:50:52;;;;;;;6.50;5.90;;;;;;;17.37;66.70;102389.13;10374138;28;20049;-73
2023/04/30 07:55:53;;;;;;;8.55;5.63;;;;;;;17.66;69.30;102390.66;10374452;28;20045;-73
2023/04/30 08:00:53;;;;;;;10.27;5.38;;;;;;;17.75;65.00;102392.16;10374331;28;20140;-73
2023/04/30 08:05:53;;;;;;;6.47;5.70;;;;;;;17.31;68.52;102400.91;10373281;28;20049;-73
2023/04/30 08:10:54;;;;;;;6.63;5.07;;;;;;;17.34;68.34;102401.31;10372657;28;20037;-73
2023/04/30 08:15:54;;;;;;;9.32;5.00;;;;;;;17.53;65.01;102396.13;10355862;28;20137;-73
2023/04/30 08:20:55;;;;;;;6.18;5.22;;;;;;;17.79;65.53;102387.97;10340124;28;20040;-73
2023/04/30 08:25:55;;;;;;;8.48;5.45;;;;;;;17.96;61.70;102384.81;10356574;28;20457;-73
2023/04/30 08:30:55;;;;;;;8.18;4.70;;;;;;;18.21;61.82;102391.34;10356287;28;20060;-73
2023/04/30 08:35:56;;;;;;;5.75;5.15;;;;;;;18.34;63.07;102385.84;10355839;28;20477;-74
2023/04/30 08:41:16;;;;;;;5.57;5.05;;;;;;;18.77;62.64;102390.84;10372805;28;20034;-74
2023/04/30 08:46:17;;;;;;;3.75;3.45;;;;;;;19.11;55.57;102387.97;10372911;28;20048;-73
2023/04/30 08:51:17;;;;;;;5.53;4.18;;;;;;;19.28;58.23;102394.66;10358840;28;20037;-73
2023/04/30 08:56:18;;;;;;;10.80;4.20;;;;;;;19.71;54.97;102386.59;10363183;28;20068;-71
2023/04/30 09:01:18;;;;;;;10.98;5.03;;;;;;;20.17;58.53;102387.31;10346648;28;20080;-73
2023/04/30 09:06:19;;;;;;;4.78;4.35;;;;;;;19.72;51.16;102377.31;10363312;28;20458;-72
2023/04/30 09:11:27;;;;;;;4.53;4.13;;;;;;;19.88;53.18;102369.56;10362783;28;20038;-76
2023/04/30 09:16:31;;;;;;;3.70;3.40;;;;;;;20.39;58.21;102372.06;10364090;28;20026;-77
2023/04/30 09:21:33;;;;;;;3.70;3.05;;;;;;;20.60;50.76;102372.72;10346705;28;20030;-74
2023/04/30 09:26:34;;;;;;;4.25;3.85;;;;;;;20.40;48.75;102378.41;10379709;28;20030;-73
2023/04/30 09:31:35;;;;;;;3.22;2.80;;;;;;;20.58;55.80;102372.94;10380239;28;20113;-74
2023/04/30 09:36:36;;;;;;;4.70;3.47;;;;;;;21.07;52.76;102359.22;10361999;28;20042;-74
2023/04/30 09:41:36;;;;;;;4.50;3.47;;;;;;;21.29;51.93;102362.31;10361889;28;20065;-70
2023/04/30 09:46:37;;;;;;;4.38;3.97;;;;;;;21.24;47.77;102373.19;10277194;28;20057;-71
2023/04/30 09:51:54;;;;;;;3.03;2.83;;;;;;;21.04;48.12;102363.28;10320823;28;20038;-72
2023/04/30 09:56:56;;;;;;;2.88;2.67;;;;;;;20.86;52.66;102358.63;10321293;28;20126;-72
2023/04/30 10:02:04;;;;;;;3.45;3.15;;;;;;;21.74;54.69;102345.34;10337323;28;20125;-71
2023/04/30 10:07:14;;;;;;;2.03;1.92;;;;;;;22.20;45.17;102349.22;10320810;28;20022;-74
2023/04/30 10:12:15;;;;;;;4.18;3.00;;;;;;;21.54;47.35;102342.91;10319984;28;20413;-71
2023/04/30 10:17:16;;;;;;;3.65;3.35;;;;;;;21.43;47.73;102343.69;10319043;28;20129;-71
2023/04/30 10:22:16;;;;;;;2.53;2.13;;;;;;;21.43;45.52;102346.44;10319589;28;20117;-74
2023/04/30 10:27:16;;;;;;;3.78;3.42;;;;;;;21.65;52.28;102332.97;10303274;28;20038;-72
2023/04/30 10:32:17;;;;;;;3.42;3.13;;;;;;;21.77;46.63;102329.16;10337232;28;20133;-73
2023/04/30 10:37:26;;;;;;;3.05;2.33;;;;;;;21.62;43.85;102341.72;10320125;28;20473;-73
2023/04/30 10:42:27;;;;;;;4.88;3.10;;;;;;;21.58;43.62;102325.63;10336740;28;20034;-72
2023/04/30 10:47:28;;;;;;;4.57;3.38;;;;;;;21.58;45.71;102319.28;10319574;28;20078;-72
2023/04/30 10:52:29;;;;;;;3.38;3.08;;;;;;;22.08;49.75;102315.25;10317582;28;20034;-73
2023/04/30 10:57:29;;;;;;;3.58;3.28;;;;;;;22.70;45.38;102299.00;10318373;28;20034;-73
2023/04/30 11:02:42;;;;;;;2.67;2.47;;;;;;;23.03;48.80;102297.44;10335740;28;20062;-74
2023/04/30 11:07:50;;;;;;;3.58;3.20;;;;;;;23.12;44.91;102284.91;10336503;28;20069;-74
2023/04/30 11:12:51;;;;;;;2.65;2.50;;;;;;;22.97;41.99;102271.63;10318376;28;20117;-74
2023/04/30 11:17:55;;;;;;;4.82;4.30;;;;;;;22.80;45.55;102268.81;10316853;28;20525;-74
2023/04/30 11:23:15;;;;;;;3.53;3.33;;;;;;;22.70;45.24;102260.31;10335406;28;20121;-74
2023/04/30 11:28:25;;;;;;;3.72;3.25;;;;;;;23.84;48.86;102259.34;10316479;28;20040;-74
2023/04/30 11:33:27;;;;;;;3.47;3.22;;;;;;;23.39;41.68;102252.81;10317812;28;20117;-74
2023/04/30 11:38:28;;;;;;;4.28;3.05;;;;;;;22.80;44.22;102246.72;10334608;28;20026;-74
2023/04/30 11:43:30;;;;;;;4.40;3.75;;;;;;;22.88;43.00;102242.75;10301136;28;20036;-73
2023/04/30 11:48:35;;;;;;;3.63;3.38;;;;;;;23.31;42.25;102233.84;10317481;28;20042;-73
2023/04/30 11:53:35;;;;;;;4.20;3.78;;;;;;;23.05;46.75;102220.69;10316387;28;20034;-73
2023/04/30 11:58:39;;;;;;;5.00;3.13;;;;;;;23.36;46.53;102217.38;10333562;28;20050;-73
2023/04/30 12:03:47;;;;;;;4.03;3.47;;;;;;;22.95;39.59;102213.06;10284176;28;20470;-73
2023/04/30 12:08:47;;;;;;;5.32;3.90;;;;;;;22.85;42.85;102219.19;10300911;28;20037;-72
2023/04/30 12:14:04;;;;;;;3.40;3.10;;;;;;;23.05;43.01;102193.91;10315840;28;20037;-74
2023/04/30 12:19:04;;;;;;;3.22;3.03;;;;;;;23.47;43.25;102210.06;10333883;28;20042;-74
2023/04/30 12:24:06;;;;;;;3.85;3.45;;;;;;;22.95;43.95;102202.84;10315601;28;20050;-74
2023/04/30 12:29:16;;;;;;;3.47;3.17;;;;;;;23.64;44.61;102190.69;10332635;28;20038;-74
2023/04/30 12:34:17;;;;;;;3.15;2.95;;;;;;;23.87;42.38;102198.81;10332808;28;20402;-74
2023/04/30 12:39:18;;;;;;;4.05;3.65;;;;;;;23.65;43.35;102186.84;10315833;28;20382;-74
2023/04/30 12:44:23;;;;;;;2.95;2.78;;;;;;;22.58;43.12;102177.53;10315209;28;20117;-74
2023/04/30 12:49:32;;;;;;;1.87;1.77;;;;;;;23.48;43.28;102173.00;10315604;28;20034;-74
2023/04/30 12:54:33;;;;;;;2.45;1.90;;;;;;;23.56;41.60;102166.25;10333866;28;20462;-74
2023/04/30 12:59:38;;;;;;;2.72;2.15;;;;;;;23.45;40.09;102173.53;10316686;28;20145;-76
2023/04/30 13:04:39;;;;;;;1.63;1.52;;;;;;;22.77;40.41;102169.03;10332227;28;20031;-75
2023/04/30 13:09:39;;;;;;;1.73;1.58;;;;;;;23.01;43.58;102167.88;10298585;28;20034;-73
2023/04/30 13:14:40;;;;;;;3.50;1.73;;;;;;;23.43;41.16;102154.44;10314423;28;20121;-74
2023/04/30 13:19:40;;;;;;;2.40;2.17;;;;;;;23.47;41.90;102148.41;10331592;28;20063;-75
2023/04/30 13:24:41;;;;;;;2.25;2.05;;;;;;;23.38;37.77;102145.22;10314603;28;20039;-74
2023/04/30 13:29:41;;;;;;;2.35;2.22;;;;;;;22.54;39.75;102140.47;10314348;28;20038;-72
2023/04/30 13:34:41;;;;;;;2.40;2.13;;;;;;;22.23;40.38;102141.78;10272478;28;20063;-74
2023/04/30 13:39:42;;;;;;;2.10;2.00;;;;;;;22.23;40.55;102128.00;10347865;28;20125;-74
2023/04/30 13:44:44;;;;;;;2.55;2.30;;;;;;;20.79;43.79;102123.84;10321489;28;20104;-74
2023/04/30 13:49:44;;;;;;;5.15;2.70;;;;;;;21.61;41.36;102125.03;10340673;28;20073;-74
2023/04/30 13:54:45;;;;;;;2.20;2.10;;;;;;;21.23;42.34;102115.28;10321016;28;20042;-74
2023/04/30 13:59:45;;;;;;;2.30;2.10;;;;;;;21.42;44.95;102116.03;10320960;28;20077;-73
2023/04/30 14:04:46;;;;;;;1.38;1.10;;;;;;;20.85;42.72;102120.16;10321051;28;20073;-75
2023/04/30 14:09:46;;;;;;;1.88;1.65;;;;;;;20.93;42.17;102107.97;10320781;28;20034;-76
2023/04/30 14:14:46;;;;;;;1.20;1.20;;;;;;;21.02;43.14;102106.53;10320476;28;20042;-74
2023/04/30 14:19:47;;;;;;;1.30;1.30;;;;;;;21.42;41.27;102094.84;10337271;28;20097;-73
2023/04/30 14:24:47;;;;;;;1.77;1.67;;;;;;;21.68;44.15;102089.88;10319777;28;20049;-73
2023/04/30 14:29:48;;;;;;;2.80;2.05;;;;;;;21.75;41.35;102087.81;10336882;28;20097;-74
2023/04/30 14:34:48;;;;;;;1.10;1.10;;;;;;;21.11;41.77;102083.06;10337938;28;20072;-74
2023/04/30 14:39:48;;;;;;;1.15;1.15;;;;;;;21.42;41.89;102100.34;10336108;28;20378;-73
2023/04/30 14:44:49;;;;;;;0.80;0.80;;;;;;;21.13;39.61;102080.09;10335615;28;20043;-73
2023/04/30 14:49:52;;;;;;;1.00;1.00;;;;;;;21.15;43.91;102072.41;10284720;28;20050;-74
2023/04/30 14:54:52;;;;;;;2.80;1.05;;;;;;;20.89;41.30;102063.53;10335964;28;20052;-74
2023/04/30 14:59:56;;;;;;;1.30;1.20;;;;;;;20.83;42.61;102071.91;10335268;28;20065;-74
2023/04/30 15:04:56;;;;;;;1.30;1.25;;;;;;;20.56;43.74;102058.59;10336198;28;20042;-74
2023/04/30 15:09:57;;;;;;;2.17;1.60;;;;;;;20.23;41.87;102048.06;10317874;28;20413;-74
2023/04/30 15:14:57;;;;;;;1.50;1.40;;;;;;;19.93;43.62;102039.81;10301569;28;20034;-74
2023/04/30 15:19:59;;;;;;;0.85;0.85;;;;;;;19.52;42.19;102042.19;10317349;28;20030;-74
2023/04/30 15:25:00;;;;;;;1.30;1.20;;;;;;;19.46;43.88;102047.75;10317161;28;20034;-74
2023/04/30 15:30:00;;;;;;;1.08;1.08;;;;;;;19.47;42.98;102039.28;10334369;28;20381;-74
2023/04/30 15:35:01;;;;;;;0.98;0.98;;;;;;;19.11;42.66;102033.75;10301176;28;20034;-73
2023/04/30 15:40:03;;;;;;;1.30;1.20;;;;;;;19.02;43.93;102022.25;10316700;28;20092;-74
2023/04/30 15:45:04;;;;;;;2.50;1.60;;;;;;;19.03;45.31;102021.19;10316896;28;20121;-74
2023/04/30 15:50:06;;;;;;;1.15;1.15;;;;;;;18.84;44.74;102014.81;10316373;28;20034;-74
2023/04/30 15:55:07;;;;;;;1.52;1.42;;;;;;;18.62;46.13;102008.03;10317045;28;20038;-74
2023/04/30 16:00:09;;;;;;;1.77;1.58;;;;;;;18.30;46.34;102013.53;10333055;28;20050;-73
2023/04/30 16:05:10;;;;;;;1.80;1.70;;;;;;;18.08;46.75;102013.06;10299630;28;20453;-73
2023/04/30 16:10:11;;;;;;;1.38;1.27;;;;;;;17.94;47.33;102012.31;10315990;28;20108;-73
2023/04/30 16:15:11;;;;;;;2.15;1.95;;;;;;;17.77;48.49;101990.06;10333609;28;20042;-73
2023/04/30 16:20:12;;;;;;;2.00;1.60;;;;;;;17.70;48.70;102002.06;10300869;28;20038;-73
2023/04/30 16:25:12;;;;;;;1.83;1.73;;;;;;;17.54;48.62;101989.69;10332288;28;20034;-74
2023/04/30 16:30:12;;;;;;;1.45;1.15;;;;;;;17.61;48.87;101987.75;10333085;28;20046;-74
2023/04/30 16:35:13;;;;;;;2.30;2.10;;;;;;;17.42;49.09;101992.25;10315310;28;20549;-73
2023/04/30 16:40:13;;;;;;;1.65;1.55;;;;;;;17.33;49.45;101971.69;10331202;28;20129;-73
2023/04/30 16:45:14;;;;;;;1.30;1.30;;;;;;;17.24;50.33;101976.53;10332506;28;20070;-73
2023/04/30 16:50:14;;;;;;;2.38;1.25;;;;;;;17.24;49.89;101972.97;10332936;28;20089;-74
2023/04/30 16:55:15;;;;;;;2.10;1.80;;;;;;;17.19;50.04;101974.44;10314952;28;20041;-74
2023/04/30 17:00:16;;;;;;;1.75;1.65;;;;;;;17.02;49.79;101969.66;10332139;28;20054;-73
2023/04/30 17:05:16;;;;;;;1.00;0.98;;;;;;;16.94;50.48;101966.13;10314955;28;20035;-73
2023/04/30 17:10:18;;;;;;;1.45;1.08;;;;;;;16.91;50.61;101960.19;10332616;28;20472;-74
2023/04/30 17:15:19;;;;;;;1.67;1.58;;;;;;;16.83;51.10;101955.81;10323342;28;20034;-73
2023/04/30 17:20:19;;;;;;;3.65;2.92;;;;;;;16.83;51.17;101960.44;10306839;28;20030;-74
2023/04/30 17:25:20;;;;;;;1.58;1.48;;;;;;;16.60;51.74;101952.66;10339981;28;20057;-74
2023/04/30 17:30:20;;;;;;;1.63;1.52;;;;;;;16.57;52.14;101932.03;10323228;28;20041;-73
2023/04/30 17:35:21;;;;;;;3.60;1.75;;;;;;;16.57;51.90;101940.25;10321745;28;20458;-73
2023/04/30 17:40:21;;;;;;;2.33;1.50;;;;;;;16.52;52.46;101938.13;10339548;28;20045;-73
2023/04/30 17:45:22;;;;;;;3.22;1.90;;;;;;;16.51;52.30;101932.88;10338577;28;20035;-74
2023/04/30 17:50:22;;;;;;;1.73;1.63;;;;;;;16.55;52.06;101934.13;10339022;28;20084;-73
2023/04/30 17:55:24;;;;;;;1.85;1.75;;;;;;;16.56;52.54;101932.25;10322036;28;20038;-74
2023/04/30 18:00:25;;;;;;;4.00;2.08;;;;;;;16.45;53.26;101937.31;10338153;28;20058;-73
2023/04/30 18:05:25;;;;;;;1.67;1.58;;;;;;;16.30;53.67;101923.00;10320334;28;20026;-73
2023/04/30 18:10:25;;;;;;;4.40;2.53;;;;;;;16.23;54.00;101923.00;10288259;28;20034;-73
2023/04/30 18:15:26;;;;;;;1.85;1.75;;;;;;;16.19;54.23;101924.50;10336385;28;20046;-73
2023/04/30 18:20:26;;;;;;;1.58;1.40;;;;;;;16.03;54.98;101914.81;10319931;28;20036;-73
2023/04/30 18:25:27;;;;;;;8.23;2.63;;;;;;;15.87;55.83;101922.56;10319211;28;20042;-73
2023/04/30 18:30:27;;;;;;;2.03;1.80;;;;;;;15.72;56.61;101918.13;10320184;28;20034;-73
2023/04/30 18:35:28;;;;;;;2.83;1.50;;;;;;;15.57;58.66;101917.41;10319540;28;20157;-73
2023/04/30 18:40:28;;;;;;;1.90;1.63;;;;;;;15.50;58.94;101903.75;10338136;28;20073;-73
2023/04/30 18:45:29;;;;;;;2.05;1.95;;;;;;;15.41;59.56;101913.19;10319486;28;20069;-73
2023/04/30 18:50:29;;;;;;;3.70;1.98;;;;;;;15.27;59.73;101906.81;10336962;28;20038;-73
2023/04/30 18:55:30;;;;;;;2.40;1.70;;;;;;;15.09;61.46;101904.66;10318213;28;20034;-73
2023/04/30 19:00:30;;;;;;;1.45;1.35;;;;;;;14.99;60.87;101898.72;10336321;28;20054;-73
2023/04/30 19:05:33;;;;;;;1.85;1.38;;;;;;;14.91;61.39;101898.06;10335601;28;20056;-73
2023/04/30 19:10:35;;;;;;;1.75;1.63;;;;;;;14.76;62.40;101898.19;10317808;28;20119;-73
2023/04/30 19:15:35;;;;;;;5.38;1.45;;;;;;;14.75;62.24;101899.25;10318020;28;20030;-73
2023/04/30 19:20:36;;;;;;;2.72;1.88;;;;;;;14.70;62.41;101890.81;10319393;28;20030;-74
2023/04/30 19:25:38;;;;;;;4.07;1.65;;;;;;;14.63;62.16;101899.78;10319175;28;20487;-73
2023/04/30 19:30:39;;;;;;;1.50;1.40;;;;;;;14.50;61.64;101910.56;10335438;28;20030;-73
2023/04/30 19:35:39;;;;;;;1.23;1.00;;;;;;;14.38;62.03;101902.09;10334769;28;20038;-73
2023/04/30 19:40:45;;;;;;;1.58;1.48;;;;;;;14.26;62.62;101900.94;10335053;28;20121;-74
2023/04/30 19:45:46;;;;;;;5.75;2.00;;;;;;;14.11;63.88;101902.94;10317513;28;20041;-73
2023/04/30 19:50:47;;;;;;;3.50;1.88;;;;;;;13.94;63.58;101908.66;10334057;28;20137;-73
2023/04/30 19:55:47;;;;;;;1.95;1.85;;;;;;;13.76;65.50;101907.44;10316442;28;20183;-73
2023/04/30 20:00:48;;;;;;;3.10;2.38;;;;;;;13.58;65.91;101911.41;10300227;28;20092;-73
2023/04/30 20:05:48;;;;;;;6.78;2.03;;;;;;;13.45;68.10;101897.66;10316390;28;20034;-73
2023/04/30 20:10:49;;;;;;;3.80;2.47;;;;;;;13.39;67.78;101896.53;10317234;28;20459;-73
2023/04/30 20:15:50;;;;;;;3.90;2.08;;;;;;;13.22;67.66;101895.91;10333170;28;20038;-73
2023/04/30 20:20:51;;;;;;;8.90;2.25;;;;;;;13.08;67.78;101901.34;10333287;28;20424;-73
2023/04/30 20:25:52;;;;;;;2.40;2.30;;;;;;;12.96;68.15;101896.41;10334449;28;20034;-73
2023/04/30 20:30:52;;;;;;;3.60;3.00;;;;;;;12.92;69.53;101902.41;10316660;28;20102;-73
2023/04/30 20:35:54;;;;;;;1.90;1.80;;;;;;;12.78;69.05;101885.91;10332725;28;20042;-75
2023/04/30 20:40:56;;;;;;;3.38;2.13;;;;;;;12.68;69.75;101888.06;10315450;28;20030;-75
2023/04/30 20:45:57;;;;;;;3.40;1.95;;;;;;;12.61;71.08;101892.59;10317417;28;20038;-74
2023/04/30 20:50:58;;;;;;;2.58;2.38;;;;;;;12.60;71.13;101888.16;10324533;28;20037;-75
2023/04/30 20:56:00;;;;;;;4.95;2.55;;;;;;;12.49;71.20;101894.06;10322804;28;20140;-74
2023/04/30 21:01:00;;;;;;;5.13;2.25;;;;;;;12.36;71.62;101891.16;10291543;28;20055;-74
2023/04/30 21:06:00;;;;;;;5.43;2.53;;;;;;;12.31;72.82;101886.25;10341445;28;20042;-73
2023/04/30 21:11:01;;;;;;;3.38;3.05;;;;;;;12.19;72.60;101880.44;10341144;28;20045;-73
2023/04/30 21:16:01;;;;;;;3.55;2.83;;;;;;;12.12;73.75;101882.19;10341147;28;20228;-74
2023/04/30 21:21:03;;;;;;;5.65;2.65;;;;;;;12.06;74.48;101877.50;10321792;28;20058;-74
2023/04/30 21:26:03;;;;;;;6.25;3.45;;;;;;;11.93;73.85;101869.13;10339470;28;20366;-74
2023/04/30 21:31:05;;;;;;;3.58;3.10;;;;;;;11.74;74.80;101870.44;10339265;28;20038;-74
2023/04/30 21:36:05;;;;;;;3.60;3.08;;;;;;;11.69;75.37;101873.72;10339855;28;20466;-74
2023/04/30 21:41:06;;;;;;;4.25;3.55;;;;;;;11.52;75.49;101867.56;10339639;28;20044;-75
2023/04/30 21:46:06;;;;;;;3.97;3.58;;;;;;;11.47;76.42;101861.81;10321913;28;20493;-74
2023/04/30 21:51:15;;;;;;;3.22;2.88;;;;;;;11.38;76.80;101869.16;10305180;28;20034;-72
2023/04/30 21:56:16;;;;;;;8.23;4.30;;;;;;;11.26;76.96;101854.31;10338446;28;20034;-73
2023/04/30 22:01:17;;;;;;;7.55;4.20;;;;;;;11.25;79.02;101847.22;10302679;28;20050;-73
2023/04/30 22:06:17;;;;;;;4.63;4.20;;;;;;;11.28;80.84;101840.59;10320497;28;20121;-73
2023/04/30 22:11:17;;;;;;;10.55;4.05;;;;;;;11.23;81.94;101841.16;10304216;28;20034;-73
2023/04/30 22:16:18;;;;;;;4.68;3.72;;;;;;;11.25;85.57;101833.66;10320630;28;20383;-73
2023/04/30 22:21:18;;;;;;;6.25;4.07;;;;;;;11.29;88.01;101831.44;10304276;28;20492;-73
2023/04/30 22:26:20;;;;;;;5.55;4.05;;;;;;;11.30;89.85;101830.44;10337951;28;20061;-73
2023/04/30 22:31:20;;;;;;;4.63;3.60;;;;;;;11.24;88.81;101828.44;10337297;28;20041;-73
2023/04/30 22:36:21;;;;;;;3.97;3.58;;;;;;;11.13;87.70;101829.66;10319331;28;20093;-73
2023/04/30 22:41:24;;;;;;;5.35;4.22;;;;;;;11.03;87.59;101827.16;10336740;28;20038;-72
2023/04/30 22:46:25;;;;;;;7.15;4.32;;;;;;;10.93;87.84;101824.69;10336420;28;20521;-74
2023/04/30 22:51:25;;;;;;;4.35;3.53;;;;;;;10.94;93.20;101826.41;10319540;28;20030;-72
2023/04/30 22:56:26;;;;;;;4.80;4.40;;;;;;;10.92;89.90;101814.03;10318233;28;20041;-73